createdAt,value
2022-12-09T00:00:22.712Z,75.98
2022-12-09T00:02:54.892Z,75.95
2022-12-09T00:05:27.451Z,76.03
2022-12-09T00:07:59.496Z,76.00
2022-12-09T00:10:31.706Z,75.96
2022-12-09T00:13:03.962Z,75.98
2022-12-09T00:15:36.203Z,75.94
2022-12-09T00:18:09.174Z,75.88
2022-12-09T00:20:41.634Z,75.82
2022-12-09T00:23:13.658Z,75.84
2022-12-09T00:25:45.988Z,75.81
2022-12-09T00:28:18.131Z,75.76
2022-12-09T00:30:50.292Z,75.77
2022-12-09T00:33:22.497Z,75.69
2022-12-09T00:35:54.722Z,75.63
2022-12-09T00:38:27.133Z,75.66
2022-12-09T00:40:59.657Z,75.74
2022-12-09T00:43:32.280Z,75.70
2022-12-09T00:46:04.863Z,75.70
2022-12-09T00:48:38.824Z,75.66
2022-12-09T00:51:12.017Z,75.68
2022-12-09T00:53:44.176Z,76.16
2022-12-09T00:56:16.909Z,75.61
2022-12-09T00:58:49.154Z,75.58
2022-12-09T01:01:21.754Z,75.52
2022-12-09T01:03:54.321Z,75.54
2022-12-09T01:06:28.130Z,75.54
2022-12-09T01:09:00.725Z,75.51
2022-12-09T01:11:32.958Z,75.59
2022-12-09T01:14:05.758Z,75.44
2022-12-09T01:16:38.313Z,75.45
2022-12-09T01:19:13.679Z,75.44
2022-12-09T01:21:45.773Z,75.45
2022-12-09T01:24:17.761Z,75.53
2022-12-09T01:26:50.745Z,75.40
2022-12-09T01:29:24.110Z,75.38
2022-12-09T01:31:57.410Z,75.61
2022-12-09T01:34:29.647Z,75.51
2022-12-09T01:37:01.491Z,76.23
2022-12-09T01:39:34.610Z,75.59
2022-12-09T01:42:08.070Z,75.54
2022-12-09T01:44:40.470Z,75.77
2022-12-09T01:47:15.752Z,75.71
2022-12-09T01:49:48.419Z,75.62
2022-12-09T01:52:23.833Z,75.60
2022-12-09T01:54:56.832Z,75.77
2022-12-09T01:57:29.030Z,75.67
2022-12-09T02:00:01.319Z,75.58
2022-12-09T02:02:38.870Z,75.68
2022-12-09T02:05:12.135Z,75.61
2022-12-09T02:07:45.676Z,75.43
2022-12-09T02:10:20.489Z,75.46
2022-12-09T02:13:07.355Z,75.37
2022-12-09T02:15:58.005Z,75.14
2022-12-09T02:18:45.600Z,75.02
2022-12-09T02:21:29.520Z,75.04
2022-12-09T02:24:20.727Z,75.19
2022-12-09T02:27:18.749Z,75.21
2022-12-09T02:29:54.077Z,75.00
2022-12-09T02:32:35.466Z,75.02
2022-12-09T02:35:18.586Z,75.05
2022-12-09T02:37:57.093Z,74.84
2022-12-09T02:40:36.830Z,74.91
2022-12-09T02:43:11.117Z,74.84
2022-12-09T02:45:45.236Z,74.94
2022-12-09T02:48:20.588Z,74.96
2022-12-09T02:50:55.357Z,74.98
2022-12-09T02:53:29.601Z,74.94
2022-12-09T02:56:03.310Z,74.98
2022-12-09T02:58:37.342Z,75.08
2022-12-09T03:01:22.259Z,75.09
2022-12-09T03:03:55.832Z,75.11
2022-12-09T03:06:30.897Z,75.13
2022-12-09T03:09:06.243Z,75.13
2022-12-09T03:11:40.957Z,75.20
2022-12-09T03:14:18.924Z,75.20
2022-12-09T03:17:06.208Z,75.21
2022-12-09T03:19:44.155Z,75.29
2022-12-09T03:22:19.120Z,75.26
2022-12-09T03:25:01.161Z,75.23
2022-12-09T03:27:41.263Z,75.04
2022-12-09T03:30:14.832Z,75.03
2022-12-09T03:32:48.982Z,75.05
2022-12-09T03:35:23.945Z,74.93
2022-12-09T03:37:56.608Z,74.93
2022-12-09T03:40:32.554Z,75.11
2022-12-09T03:43:07.844Z,74.91
2022-12-09T03:45:42.557Z,75.09
2022-12-09T03:48:15.432Z,75.17
2022-12-09T03:50:57.422Z,75.22
2022-12-09T03:53:47.376Z,75.29
2022-12-09T03:56:23.697Z,75.09
2022-12-09T03:58:57.883Z,75.04
2022-12-09T04:01:32.032Z,75.13
2022-12-09T04:04:05.002Z,75.14
2022-12-09T04:06:37.360Z,75.77
2022-12-09T04:09:11.417Z,75.35
2022-12-09T04:11:46.414Z,75.23
2022-12-09T04:14:21.766Z,75.16
2022-12-09T04:16:57.601Z,75.16
2022-12-09T04:19:30.920Z,75.36
2022-12-09T04:22:06.281Z,75.48
2022-12-09T04:24:40.053Z,75.37
2022-12-09T04:27:14.587Z,75.48
2022-12-09T04:29:49.323Z,75.46
2022-12-09T04:32:23.792Z,75.41
2022-12-09T04:34:56.887Z,75.23
2022-12-09T04:37:30.154Z,75.12
2022-12-09T04:40:04.075Z,75.35
2022-12-09T04:42:37.837Z,75.59
2022-12-09T04:45:11.384Z,75.46
2022-12-09T04:47:44.009Z,75.77
2022-12-09T04:50:17.299Z,76.55
2022-12-09T04:52:50.943Z,75.98
2022-12-09T04:55:26.964Z,76.04
2022-12-09T04:58:00.128Z,76.02
2022-12-09T05:00:36.247Z,76.04
2022-12-09T05:03:09.984Z,76.07
2022-12-09T05:05:43.261Z,76.11
2022-12-09T05:08:16.849Z,76.04
2022-12-09T05:10:51.250Z,76.16
2022-12-09T05:13:24.321Z,76.32
2022-12-09T05:16:12.123Z,76.37
2022-12-09T05:18:40.440Z,76.37
2022-12-09T05:21:16.646Z,76.30
2022-12-09T05:23:49.813Z,76.52
2022-12-09T05:26:24.333Z,76.56
2022-12-09T05:28:57.302Z,76.63
2022-12-09T05:31:31.898Z,76.62
2022-12-09T05:34:05.621Z,76.97
2022-12-09T05:36:39.400Z,76.94
2022-12-09T05:39:12.797Z,76.97
2022-12-09T05:41:47.447Z,76.99
2022-12-09T05:44:19.939Z,77.03
2022-12-09T05:46:52.883Z,77.12
2022-12-09T05:49:26.902Z,77.22
2022-12-09T05:52:00.922Z,77.34
2022-12-09T05:54:33.538Z,77.50
2022-12-09T05:57:06.601Z,76.96
2022-12-09T05:59:40.305Z,77.11
2022-12-09T06:02:14.015Z,77.22
2022-12-09T06:04:47.530Z,77.24
2022-12-09T06:07:22.666Z,77.26
2022-12-09T06:09:56.477Z,77.37
2022-12-09T06:12:31.092Z,77.51
2022-12-09T06:15:04.062Z,77.56
2022-12-09T06:17:37.166Z,77.59
2022-12-09T06:20:10.279Z,77.66
2022-12-09T06:22:43.647Z,77.65
2022-12-09T06:25:16.977Z,77.50
2022-12-09T06:27:49.187Z,77.52
2022-12-09T06:30:22.287Z,77.42
2022-12-09T06:32:54.909Z,77.36
2022-12-09T06:35:28.665Z,77.25
2022-12-09T06:38:01.158Z,77.29
2022-12-09T06:40:34.090Z,77.24
2022-12-09T06:43:07.508Z,77.15
2022-12-09T06:45:41.762Z,77.56
2022-12-09T06:48:16.206Z,77.10
2022-12-09T06:50:53.430Z,76.96
2022-12-09T06:53:26.529Z,76.85
2022-12-09T06:56:11.043Z,76.91
2022-12-09T06:58:41.208Z,76.90
2022-12-09T07:01:17.335Z,76.85
2022-12-09T07:03:54.771Z,76.65
2022-12-09T07:06:39.291Z,76.52
2022-12-09T07:09:20.333Z,76.65
2022-12-09T07:11:54.750Z,76.66
2022-12-09T07:14:27.665Z,76.60
2022-12-09T07:17:03.857Z,76.51
2022-12-09T07:19:37.162Z,76.36
2022-12-09T07:22:10.285Z,76.22
2022-12-09T07:24:43.932Z,76.04
2022-12-09T07:27:19.746Z,75.86
2022-12-09T07:29:52.308Z,75.75
2022-12-09T07:32:26.780Z,75.55
2022-12-09T07:35:00.399Z,75.32
2022-12-09T07:37:34.999Z,75.27
2022-12-09T07:40:09.975Z,75.39
2022-12-09T07:42:44.095Z,75.71
2022-12-09T07:45:17.157Z,75.70
2022-12-09T07:47:50.939Z,75.63
2022-12-09T07:50:26.022Z,75.60
2022-12-09T07:53:01.374Z,75.59
2022-12-09T07:55:36.800Z,75.50
2022-12-09T07:58:09.523Z,75.11
2022-12-09T08:00:42.244Z,75.13
2022-12-09T08:03:16.235Z,75.04
2022-12-09T08:05:50.154Z,74.96
2022-12-09T08:08:23.660Z,75.69
2022-12-09T08:10:58.463Z,75.05
2022-12-09T08:13:31.078Z,75.02
2022-12-09T08:16:08.617Z,75.55
2022-12-09T08:18:42.288Z,74.91
2022-12-09T08:21:21.966Z,75.19
2022-12-09T08:23:57.118Z,74.78
2022-12-09T08:26:33.288Z,75.19
2022-12-09T08:29:12.197Z,75.20
2022-12-09T08:31:45.598Z,75.17
2022-12-09T08:34:19.078Z,75.42
2022-12-09T08:36:52.967Z,75.40
2022-12-09T08:39:27.797Z,75.43
2022-12-09T08:42:00.938Z,75.54
2022-12-09T08:44:34.943Z,75.37
2022-12-09T08:47:07.563Z,75.50
2022-12-09T08:49:41.170Z,75.44
2022-12-09T08:52:14.276Z,75.72
2022-12-09T08:54:48.159Z,75.79
2022-12-09T08:57:26.931Z,76.06
2022-12-09T09:00:02.206Z,76.20
2022-12-09T09:02:35.656Z,76.11
2022-12-09T09:05:09.507Z,75.97
2022-12-09T09:07:42.844Z,76.09
2022-12-09T09:10:18.235Z,75.78
2022-12-09T09:12:51.360Z,75.81
2022-12-09T09:15:25.180Z,76.12
2022-12-09T09:18:00.436Z,76.22
2022-12-09T09:20:33.573Z,76.19
2022-12-09T09:23:06.187Z,76.30
2022-12-09T09:25:46.343Z,76.22
2022-12-09T09:28:20.023Z,76.17
2022-12-09T09:31:04.315Z,75.76
2022-12-09T09:33:37.283Z,75.55
2022-12-09T09:36:18.200Z,75.80
2022-12-09T09:38:53.283Z,75.87
2022-12-09T09:41:50.073Z,75.90
2022-12-09T09:44:40.434Z,75.73
2022-12-09T09:47:23.180Z,75.79
2022-12-09T09:50:17.472Z,75.71
2022-12-09T09:52:51.309Z,75.76
2022-12-09T09:55:32.430Z,76.33
2022-12-09T09:58:23.156Z,75.59
2022-12-09T10:01:12.330Z,75.76
2022-12-09T10:03:51.156Z,75.79
2022-12-09T10:06:43.868Z,75.73
2022-12-09T10:09:23.244Z,75.62
2022-12-09T10:12:15.982Z,75.75
2022-12-09T10:14:55.222Z,75.66
2022-12-09T10:17:42.860Z,75.69
2022-12-09T10:20:19.011Z,75.79
2022-12-09T10:23:04.215Z,75.73
2022-12-09T10:25:40.930Z,75.85
2022-12-09T10:28:20.961Z,76.14
2022-12-09T10:30:55.799Z,75.80
2022-12-09T10:33:32.444Z,75.57
2022-12-09T10:36:07.794Z,75.26
2022-12-09T10:38:42.716Z,75.22
2022-12-09T10:41:28.930Z,74.96
2022-12-09T10:44:05.240Z,75.20
2022-12-09T10:46:37.960Z,75.10
2022-12-09T10:49:13.683Z,75.00
2022-12-09T10:51:51.755Z,75.03
2022-12-09T10:54:40.152Z,74.83
2022-12-09T10:57:16.414Z,74.66
2022-12-09T11:00:11.154Z,74.74
2022-12-09T11:02:47.740Z,74.47
2022-12-09T11:05:28.761Z,74.41
2022-12-09T11:08:03.253Z,74.49
2022-12-09T11:10:39.997Z,74.17
2022-12-09T11:13:16.904Z,74.38
2022-12-09T11:15:57.702Z,74.41
2022-12-09T11:18:33.935Z,74.18
2022-12-09T11:21:08.992Z,74.37
2022-12-09T11:23:45.545Z,74.15
2022-12-09T11:26:24.662Z,74.04
2022-12-09T11:29:04.727Z,73.93
2022-12-09T11:31:45.814Z,73.83
2022-12-09T11:34:26.526Z,74.12
2022-12-09T11:37:03.722Z,73.80
2022-12-09T11:39:38.933Z,73.45
2022-12-09T11:42:22.743Z,73.23
2022-12-09T11:45:06.278Z,73.13
2022-12-09T11:48:22.609Z,73.06
2022-12-09T11:50:26.091Z,73.02
2022-12-09T11:53:13.911Z,73.32
2022-12-09T11:55:52.530Z,73.14
2022-12-09T11:58:50.119Z,72.98
2022-12-09T12:01:29.363Z,73.15
2022-12-09T12:04:09.657Z,73.24
2022-12-09T12:06:56.263Z,73.34
2022-12-09T12:09:32.104Z,73.18
2022-12-09T12:12:17.560Z,73.30
2022-12-09T12:14:51.864Z,73.47
2022-12-09T12:17:40.457Z,73.50
2022-12-09T12:20:14.965Z,74.26
2022-12-09T12:23:13.780Z,73.48
2022-12-09T12:26:16.773Z,73.21
2022-12-09T12:29:06.897Z,73.51
2022-12-09T12:31:54.471Z,73.56
2022-12-09T12:34:39.846Z,73.49
2022-12-09T12:37:30.912Z,73.53
2022-12-09T12:40:10.825Z,73.72
2022-12-09T12:42:48.335Z,73.83
2022-12-09T12:45:42.092Z,73.63
2022-12-09T12:48:18.819Z,73.77
2022-12-09T12:51:13.550Z,73.74
2022-12-09T12:53:47.240Z,73.88
2022-12-09T12:56:32.298Z,74.55
2022-12-09T12:59:25.990Z,73.83
2022-12-09T13:02:21.296Z,74.06
2022-12-09T13:05:00.513Z,74.18
2022-12-09T13:07:45.890Z,74.25
2022-12-09T13:10:24.126Z,74.13
2022-12-09T13:13:01.246Z,74.09
2022-12-09T13:15:40.642Z,73.97
2022-12-09T13:18:16.729Z,74.05
2022-12-09T13:20:52.985Z,74.15
2022-12-09T13:23:46.750Z,74.03
2022-12-09T13:26:26.701Z,74.15
2022-12-09T13:29:35.754Z,74.37
2022-12-09T13:32:18.015Z,74.22
2022-12-09T13:34:55.076Z,74.90
2022-12-09T13:37:39.383Z,74.65
2022-12-09T13:40:24.340Z,74.64
2022-12-09T13:43:06.676Z,74.80
2022-12-09T13:45:47.817Z,74.80
2022-12-09T13:48:24.015Z,74.70
2022-12-09T13:51:00.351Z,74.82
2022-12-09T13:53:40.096Z,74.94
2022-12-09T13:56:29.444Z,74.74
2022-12-09T13:59:25.001Z,74.66
2022-12-09T14:02:17.927Z,74.64
2022-12-09T14:05:00.200Z,74.51
2022-12-09T14:07:38.208Z,74.54
2022-12-09T14:10:43.270Z,74.51
2022-12-09T14:13:31.536Z,74.30
2022-12-09T14:16:29.120Z,74.49
2022-12-09T14:19:21.542Z,74.52
2022-12-09T14:22:20.357Z,74.54
2022-12-09T14:24:56.469Z,74.72
2022-12-09T14:27:31.586Z,74.83
2022-12-09T14:30:07.885Z,74.71
2022-12-09T14:32:55.224Z,74.71
2022-12-09T14:35:49.410Z,74.55
2022-12-09T14:39:08.291Z,74.85
2022-12-09T14:41:30.649Z,75.15
2022-12-09T14:44:23.063Z,74.88
2022-12-09T14:47:03.334Z,74.75
2022-12-09T14:49:42.784Z,74.95
2022-12-09T14:52:16.457Z,74.85
2022-12-09T14:54:53.460Z,74.72
2022-12-09T14:57:30.298Z,74.76
2022-12-09T15:00:06.309Z,74.59
2022-12-09T15:02:38.872Z,74.44
2022-12-09T15:05:18.031Z,74.43
2022-12-09T15:07:52.449Z,74.44
2022-12-09T15:10:32.078Z,74.39
2022-12-09T15:13:03.977Z,74.15
2022-12-09T15:15:39.708Z,74.18
2022-12-09T15:18:24.288Z,74.13
2022-12-09T15:21:01.921Z,73.93
2022-12-09T15:23:41.294Z,74.16
2022-12-09T15:26:23.242Z,74.12
2022-12-09T15:28:59.770Z,74.05
2022-12-09T15:31:35.137Z,74.48
2022-12-09T15:34:15.217Z,74.24
2022-12-09T15:36:51.841Z,74.60
2022-12-09T15:39:31.047Z,74.39
2022-12-09T15:42:08.147Z,74.14
2022-12-09T15:45:03.920Z,74.22
2022-12-09T15:47:46.052Z,74.03
2022-12-09T15:50:33.427Z,74.01
2022-12-09T15:53:09.679Z,73.87
2022-12-09T15:55:45.308Z,73.69
2022-12-09T15:58:24.247Z,73.86
2022-12-09T16:00:58.160Z,73.84
2022-12-09T16:03:35.507Z,73.81
2022-12-09T16:06:10.164Z,73.98
2022-12-09T16:08:45.524Z,73.71
2022-12-09T16:11:39.270Z,73.61
2022-12-09T16:14:13.324Z,73.47
2022-12-09T16:16:49.172Z,73.55
2022-12-09T16:19:34.936Z,73.76
2022-12-09T16:22:11.405Z,74.00
2022-12-09T16:27:24.835Z,73.77
2022-12-09T16:30:01.200Z,73.94
2022-12-09T16:32:43.113Z,73.80
2022-12-09T16:35:19.950Z,73.60
2022-12-09T16:38:01.381Z,73.71
2022-12-09T16:40:49.130Z,73.69
2022-12-09T16:43:24.065Z,73.64
2022-12-09T16:46:00.322Z,73.69
2022-12-09T16:48:33.453Z,73.87
2022-12-09T16:51:18.248Z,73.57
2022-12-09T16:53:53.840Z,73.35
2022-12-09T16:56:28.714Z,73.56
2022-12-09T16:59:00.993Z,73.48
2022-12-09T17:01:36.947Z,73.37
2022-12-09T17:04:17.999Z,73.24
2022-12-09T17:06:50.354Z,73.30
2022-12-09T17:09:22.536Z,73.19
2022-12-09T17:11:54.749Z,73.06
2022-12-09T17:14:27.615Z,73.10
2022-12-09T17:17:03.368Z,73.31
2022-12-09T17:19:38.197Z,73.26
2022-12-09T17:22:10.520Z,73.44
2022-12-09T17:24:42.818Z,73.38
2022-12-09T17:27:14.880Z,73.26
2022-12-09T17:29:47.888Z,73.31
2022-12-09T17:32:20.262Z,73.20
2022-12-09T17:34:54.279Z,73.27
2022-12-09T17:37:26.555Z,73.43
2022-12-09T17:40:06.624Z,73.40
2022-12-09T17:42:33.885Z,73.45
2022-12-09T17:45:07.344Z,73.24
2022-12-09T17:47:39.618Z,73.22
2022-12-09T17:50:11.752Z,73.23
2022-12-09T17:52:43.806Z,73.19
2022-12-09T17:55:15.868Z,73.30
2022-12-09T17:57:53.931Z,73.47
2022-12-09T18:00:21.795Z,73.18
2022-12-09T18:02:53.757Z,73.27
2022-12-09T18:05:25.819Z,73.28
2022-12-09T18:07:58.393Z,73.26
2022-12-09T18:10:30.350Z,73.20
2022-12-09T18:13:03.026Z,73.06
2022-12-09T18:15:39.657Z,73.00
2022-12-09T18:18:12.186Z,73.09
2022-12-09T18:20:44.276Z,73.19
2022-12-09T18:23:16.373Z,73.42
2022-12-09T18:25:49.043Z,73.37
2022-12-09T18:28:21.112Z,73.28
2022-12-09T18:30:53.334Z,73.32
2022-12-09T18:33:25.995Z,73.24
2022-12-09T18:35:58.176Z,73.33
2022-12-09T18:38:30.742Z,73.26
2022-12-09T18:41:02.942Z,73.03
2022-12-09T18:43:38.129Z,72.90
2022-12-09T18:46:13.782Z,72.86
2022-12-09T18:48:46.840Z,72.82
2022-12-09T18:51:21.459Z,72.99
2022-12-09T18:53:54.591Z,73.00
2022-12-09T18:56:27.399Z,72.84
2022-12-09T18:59:08.968Z,72.91
2022-12-09T19:01:35.988Z,72.96
2022-12-09T19:04:09.329Z,72.85
2022-12-09T19:06:43.131Z,72.88
2022-12-09T19:09:18.191Z,72.85
2022-12-09T19:11:52.182Z,73.01
2022-12-09T19:14:25.464Z,73.08
2022-12-09T19:16:57.937Z,73.13
2022-12-09T19:19:30.798Z,73.31
2022-12-09T19:22:03.792Z,73.33
2022-12-09T19:24:42.678Z,73.42
2022-12-09T19:27:10.801Z,73.43
2022-12-09T19:29:42.946Z,73.44
2022-12-09T19:32:50.854Z,73.50
2022-12-09T19:34:48.628Z,73.37
2022-12-09T19:37:20.527Z,73.49
2022-12-09T19:39:53.245Z,73.61
2022-12-09T19:42:25.586Z,73.73
2022-12-09T19:45:02.334Z,73.55
2022-12-09T19:47:33.161Z,73.66
2022-12-09T19:50:05.939Z,73.55
2022-12-09T19:52:38.175Z,73.40
2022-12-09T19:55:10.847Z,73.52
2022-12-09T19:57:43.125Z,73.59
2022-12-09T20:00:15.750Z,73.50
2022-12-09T20:02:49.583Z,73.63
2022-12-09T20:05:21.674Z,73.78
2022-12-09T20:07:54.320Z,73.80
2022-12-09T20:10:26.325Z,73.85
2022-12-09T20:12:58.519Z,73.98
2022-12-09T20:15:30.783Z,74.25
2022-12-09T20:18:02.663Z,74.52
2022-12-09T20:20:36.225Z,74.55
2022-12-09T20:23:08.595Z,74.54
2022-12-09T20:25:40.995Z,74.70
2022-12-09T20:28:13.059Z,74.58
2022-12-09T20:30:45.690Z,74.41
2022-12-09T20:33:17.783Z,74.54
2022-12-09T20:35:49.964Z,74.72
2022-12-09T20:38:22.353Z,74.59
2022-12-09T20:40:54.382Z,74.56
2022-12-09T20:43:26.607Z,74.63
2022-12-09T20:45:58.625Z,74.43
2022-12-09T20:48:31.502Z,74.48
2022-12-09T20:51:08.101Z,74.30
2022-12-09T20:53:43.074Z,74.48
2022-12-09T20:56:15.722Z,74.39
2022-12-09T20:58:51.148Z,74.27
2022-12-09T21:01:26.180Z,74.04
2022-12-09T21:03:59.937Z,74.01
2022-12-09T21:06:35.037Z,74.08
2022-12-09T21:09:10.492Z,74.04
2022-12-09T21:11:42.980Z,74.00
2022-12-09T21:14:18.535Z,74.01
2022-12-09T21:16:53.634Z,74.12
2022-12-09T21:19:27.635Z,74.19
2022-12-09T21:22:00.362Z,74.33
2022-12-09T21:24:33.958Z,74.49
2022-12-09T21:27:06.545Z,74.51
2022-12-09T21:29:39.282Z,74.58
2022-12-09T21:32:11.229Z,74.54
2022-12-09T21:34:43.471Z,74.56
2022-12-09T21:37:15.629Z,74.49
2022-12-09T21:39:47.931Z,74.29
2022-12-09T21:42:19.937Z,74.31
2022-12-09T21:44:51.860Z,74.42
2022-12-09T21:47:24.351Z,74.41
2022-12-09T21:49:57.221Z,74.53
2022-12-09T21:52:29.791Z,74.61
2022-12-09T21:55:02.546Z,74.68
2022-12-09T21:57:36.273Z,74.87
2022-12-09T22:00:10.747Z,74.83
2022-12-09T22:02:44.613Z,74.99
2022-12-09T22:05:17.166Z,75.18
2022-12-09T22:07:50.909Z,75.03
2022-12-09T22:10:23.219Z,75.14
2022-12-09T22:12:56.013Z,75.16
2022-12-09T22:15:28.573Z,75.15
2022-12-09T22:18:01.469Z,75.11
2022-12-09T22:21:07.934Z,75.34
2022-12-09T22:23:07.895Z,75.30
2022-12-09T22:25:40.608Z,75.38
2022-12-09T22:28:12.808Z,75.53
2022-12-09T22:30:44.922Z,75.35
2022-12-09T22:33:17.145Z,75.19
2022-12-09T22:35:49.490Z,75.33
2022-12-09T22:38:22.353Z,75.21
2022-12-09T22:40:54.387Z,75.23
2022-12-09T22:43:27.351Z,75.47
2022-12-09T22:46:07.903Z,75.64
2022-12-09T22:48:41.057Z,75.67
2022-12-09T22:51:17.616Z,75.69
2022-12-09T22:53:51.290Z,75.87
2022-12-09T22:56:25.014Z,75.77
2022-12-09T22:58:57.257Z,75.77
2022-12-09T23:01:33.086Z,75.75
2022-12-09T23:04:07.053Z,75.73
2022-12-09T23:06:40.915Z,75.86
2022-12-09T23:09:16.204Z,76.01
2022-12-09T23:11:49.163Z,75.98
2022-12-09T23:14:22.070Z,76.00
2022-12-09T23:16:54.294Z,75.92
2022-12-09T23:19:26.887Z,76.03
2022-12-09T23:21:59.483Z,76.16
2022-12-09T23:24:31.736Z,75.96
2022-12-09T23:27:04.720Z,75.95
2022-12-09T23:29:36.963Z,76.02
2022-12-09T23:32:09.347Z,76.09
2022-12-09T23:34:41.589Z,76.07
2022-12-09T23:37:15.071Z,76.02
2022-12-09T23:39:49.115Z,75.96
2022-12-09T23:42:21.934Z,76.11
2022-12-09T23:44:54.079Z,76.45
2022-12-09T23:47:26.667Z,75.86
2022-12-09T23:49:58.890Z,75.70
2022-12-09T23:52:30.941Z,75.64
2022-12-09T23:55:04.667Z,75.63
2022-12-09T23:57:36.903Z,75.67
